Terminal Aerodrome Forecast
Issued by NWS

Home | Current Version | Previous Version | Text Only | Print | Product List | Glossary Off
Versions: 1 2 3 4 5 6 7 8 9 10 11 12 13 14 15 16 17 18 19 20 21 22 23 24 25

000
FTUS43 KPAH 212300
TAFOWB
TAF
KOWB 212320Z 2200/2224 VRB03KT P6SM FEW050
     FM220800 00000KT 5SM BR MIFG SKC
     FM221400 19003KT P6SM SKC=

USA.gov is the U.S. government's official web portal to all federal, state and local government web resources and services.